Flinders Reef, Australia
Current Conditions -  °F | °C
As of 3:00 AM on Wednesday 28 Jan 2015 (Local Time) from YBTL Reporting Station
Clear Clear  
Wind Chill: 82°   Ceiling: Unl
Heat Index: 92°   Visibility: 6mi
Dew Point: 79°   Wind: 0mph
Humidity: 89%   Direction: NA
Pressure: 29.53"   Gusts: NA
Location:  17.72°S, 148.43°E
Report Text: YBTL 271700Z AUTO 00000KT 9999 // NCD 28/26 Q1000
Loading
Personal Weather Stations






























Interactive Weather Map New forecast layout! Learn more

10-Day Weather Forecast

Advertisements
Track Severe Weather on mobile